Bow Engineer — LASA7 — position and weather

sailwx.info

Track history (hours):
 
Tides and Currents Weather Stations Pressure Air Temp Water Temp Dewpoint Dewpoint Depression Visibility Wind Speed Wind Dir Waves Ship Positions

Bow Engineer

Last reported at 2017-Oct-16 18:48 UTC. Time now 2017-Oct-22 10:24 UTC.
Position N 01°15' E 104°04'.

Length 170 m; draft 7.5 m.

Type: Ship (hazmat cat B). MMSI: 258767000.

Date/timePositionNaut miles runAvg speedWind from/ knotsBaromVisibWave heightAir tempDewpointWater temp
2017-Oct-16 18:48N 01°15' E 104°04'0 0.8
2017-Oct-16 18:30N 01°15' E 104°03'0 1.0
2017-Oct-16 18:00N 01°14' E 104°03'0 1.0
2017-Oct-16 17:30N 01°14' E 104°02'0 0.7
2017-Oct-16 17:00N 01°14' E 104°02'0 0.8
2017-Oct-16 16:30N 01°14' E 104°02'0 1.0
2017-Oct-16 16:00N 01°14' E 104°01'0 1.0
2017-Oct-16 15:30N 01°14' E 104°01'11 1.5
2017-Oct-16 08:21N 01°16' E 104°11'410.4
2017-Oct-16 07:59N 01°15' E 104°08'2 4.4
2017-Oct-16 07:31N 01°15' E 104°06'2 5.0
2017-Oct-16 07:01N 01°14' E 104°03'2 4.8
2017-Oct-16 06:30N 01°14' E 104°01'2 3.7
2017-Oct-16 06:00N 01°14' E 103°59'3 6.1
2017-Oct-16 05:31N 01°13' E 103°56'611.0
2017-Oct-16 05:00N 01°11' E 103°51'3 6.1
2017-Oct-16 04:31N 01°13' E 103°48'510.4
2017-Oct-16 04:01N 01°16' E 103°45'2 3.2
2017-Oct-16 03:30N 01°18' E 103°44'0 0.0
2017-Oct-16 02:57N 01°18' E 103°44'5 7.6
2017-Oct-16 02:15N 01°13' E 103°42'513.0
2017-Oct-16 01:51N 01°18' E 103°44'0 0.0
2017-Oct-16 01:30N 01°18' E 103°44'0 0.0
2017-Oct-16 00:57N 01°18' E 103°44'0 0.0
2017-Oct-16 00:30N 01°18' E 103°44'0 0.0
2017-Oct-15 23:56N 01°18' E 103°44'0 0.0
2017-Oct-15 23:27N 01°18' E 103°44'0 0.0
2017-Oct-15 22:57N 01°18' E 103°44'0 0.0
2017-Oct-15 22:30N 01°18' E 103°44'0 0.0
2017-Oct-15 21:57N 01°18' E 103°44'0 0.0
2017-Oct-15 21:27N 01°18' E 103°44'0 0.0
2017-Oct-15 20:56N 01°18' E 103°44'0 0.0
2017-Oct-15 20:30N 01°18' E 103°44'0 0.0
2017-Oct-15 19:57N 01°18' E 103°44'0 0.1
2017-Oct-15 19:30N 01°18' E 103°44'0 0.1
2017-Oct-15 18:57N 01°18' E 103°44'0 0.0
2017-Oct-15 18:30N 01°18' E 103°44'0 0.0
2017-Oct-15 17:57N 01°18' E 103°44'0 0.0
2017-Oct-15 17:29N 01°18' E 103°44'0 0.0
2017-Oct-15 16:57N 01°18' E 103°44'0 0.0
2017-Oct-15 16:29N 01°18' E 103°44'0 0.0
2017-Oct-15 16:01N 01°18' E 103°44'0 0.1
2017-Oct-15 15:31N 01°18' E 103°44'2 3.0
2017-Oct-15 15:00N 01°17' E 103°45'6 6.2
2017-Oct-15 14:00N 01°14' E 103°39'0 0.4
2017-Oct-15 13:29N 01°14' E 103°39'0 0.1
2017-Oct-15 12:59N 01°14' E 103°39'0 0.1
2017-Oct-15 12:26N 01°14' E 103°39'0 0.1
2017-Oct-15 11:59N 01°14' E 103°39'0 0.1
2017-Oct-15 11:17N 01°14' E 103°39'0 0.0
2017-Oct-15 10:59N 01°14' E 103°39'0 0.0
2017-Oct-15 09:26N 01°14' E 103°39'817.1
2017-Oct-15 08:58N 01°09' E 103°45'2 1.3
2017-Oct-15 07:40N 01°10' E 103°46'947.0
2017-Oct-15 07:29N 01°14' E 103°39'0 0.0
2017-Oct-15 06:59N 01°14' E 103°39'0 0.1
2017-Oct-15 06:29N 01°14' E 103°39'0 0.1
2017-Oct-15 05:59N 01°14' E 103°39'0 0.0
2017-Oct-15 05:26N 01°14' E 103°39'0 0.0
2017-Oct-15 04:53N 01°14' E 103°39'0 0.0
2017-Oct-15 04:29N 01°14' E 103°39'0 0.1
2017-Oct-15 03:57N 01°14' E 103°39'0 0.0
2017-Oct-15 03:29N 01°14' E 103°39'0 0.0
2017-Oct-15 03:00N 01°14' E 103°39'0 0.1
2017-Oct-15 02:30N 01°14' E 103°39'0 0.0
2017-Oct-15 02:00N 01°14' E 103°39'0 0.1
2017-Oct-15 01:30N 01°14' E 103°39'0 0.0
2017-Oct-15 01:00N 01°14' E 103°39'0 0.0
2017-Oct-15 00:30N 01°14' E 103°39'0 0.1
2017-Oct-15 00:00N 01°14' E 103°39'1 1.2
2017-Oct-14 23:30N 01°14' E 103°39'4 8.2
2017-Oct-14 23:00N 01°10' E 103°41'3 5.4
2017-Oct-14 22:30N 01°09' E 103°43'3 5.2
2017-Oct-14 21:59N 01°09' E 103°46'3 6.4
2017-Oct-14 21:30N 01°11' E 103°49'713.0
2017-Oct-14 21:00N 01°14' E 103°55'612.6
2017-Oct-14 20:30N 01°16' E 104°00'1312.7
2017-Oct-14 19:28N 01°17' E 104°14'1012.6
2017-Oct-14 18:40N 01°21' E 104°23'  
2017-Oct-10 01:53N 22°29' E 119°47'514.1
2017-Oct-10 01:30N 22°31' E 119°53'714.6
2017-Oct-10 01:01N 22°34' E 120°00'714.8
2017-Oct-10 00:30N 22°36' E 120°08'611.8
2017-Oct-10 00:00N 22°38' E 120°14'4 7.7
2017-Oct-09 23:30N 22°36' E 120°17'1 2.1
2017-Oct-09 23:00N 22°35' E 120°18'0 0.0
2017-Oct-09 16:21N 22°35' E 120°18'0 0.0
2017-Oct-09 15:03N 22°35' E 120°18'0 0.0
2017-Oct-09 13:33N 22°35' E 120°18'0 0.0
2017-Oct-09 13:07N 22°35' E 120°18'0 0.0
2017-Oct-09 13:01N 22°35' E 120°18'0 0.0
2017-Oct-09 07:03N 22°35' E 120°18'0 0.0
2017-Oct-09 06:36N 22°35' E 120°18'0 0.0
2017-Oct-09 06:24N 22°35' E 120°18'0 0.0
2017-Oct-09 06:00N 22°35' E 120°18'0 0.0
2017-Oct-09 03:44N 22°35' E 120°18'0 0.0
2017-Oct-09 03:30N 22°35' E 120°18'0 0.7
2017-Oct-09 03:00N 22°35' E 120°18'4 8.0
2017-Oct-09 02:31N 22°37' E 120°14'4 7.4
2017-Oct-09 02:00N 22°37' E 120°10'2 5.0
2017-Oct-09 01:30N 22°39' E 120°08'612.4
2017-Oct-09 01:00N 22°44' E 120°04'  
Track history (hours):
 
Tides and Currents Weather Stations Pressure Air Temp Water Temp Dewpoint Dewpoint Depression Visibility Wind Speed Wind Dir Waves Ship Positions

Bow Engineer

Last reported at 2017-Oct-16 18:48 UTC. Time now 2017-Oct-22 10:24 UTC.
Position N 01°15' E 104°04'.

Length 170 m; draft 7.5 m.

Type: Ship (hazmat cat B). MMSI: 258767000.

Date/timePositionNaut miles runAvg speedWind from/ knotsBaromVisibWave heightAir tempDewpointWater temp
2017-Oct-16 18:48N 01°15' E 104°04'0 0.8
2017-Oct-16 18:30N 01°15' E 104°03'0 1.0
2017-Oct-16 18:00N 01°14' E 104°03'0 1.0
2017-Oct-16 17:30N 01°14' E 104°02'0 0.7
2017-Oct-16 17:00N 01°14' E 104°02'0 0.8
2017-Oct-16 16:30N 01°14' E 104°02'0 1.0
2017-Oct-16 16:00N 01°14' E 104°01'0 1.0
2017-Oct-16 15:30N 01°14' E 104°01'11 1.5
2017-Oct-16 08:21N 01°16' E 104°11'410.4
2017-Oct-16 07:59N 01°15' E 104°08'2 4.4
2017-Oct-16 07:31N 01°15' E 104°06'2 5.0
2017-Oct-16 07:01N 01°14' E 104°03'2 4.8
2017-Oct-16 06:30N 01°14' E 104°01'2 3.7
2017-Oct-16 06:00N 01°14' E 103°59'3 6.1
2017-Oct-16 05:31N 01°13' E 103°56'611.0
2017-Oct-16 05:00N 01°11' E 103°51'3 6.1
2017-Oct-16 04:31N 01°13' E 103°48'510.4
2017-Oct-16 04:01N 01°16' E 103°45'2 3.2
2017-Oct-16 03:30N 01°18' E 103°44'0 0.0
2017-Oct-16 02:57N 01°18' E 103°44'5 7.6
2017-Oct-16 02:15N 01°13' E 103°42'513.0
2017-Oct-16 01:51N 01°18' E 103°44'0 0.0
2017-Oct-16 01:30N 01°18' E 103°44'0 0.0
2017-Oct-16 00:57N 01°18' E 103°44'0 0.0
2017-Oct-16 00:30N 01°18' E 103°44'0 0.0
2017-Oct-15 23:56N 01°18' E 103°44'0 0.0
2017-Oct-15 23:27N 01°18' E 103°44'0 0.0
2017-Oct-15 22:57N 01°18' E 103°44'0 0.0
2017-Oct-15 22:30N 01°18' E 103°44'0 0.0
2017-Oct-15 21:57N 01°18' E 103°44'0 0.0
2017-Oct-15 21:27N 01°18' E 103°44'0 0.0
2017-Oct-15 20:56N 01°18' E 103°44'0 0.0
2017-Oct-15 20:30N 01°18' E 103°44'0 0.0
2017-Oct-15 19:57N 01°18' E 103°44'0 0.1
2017-Oct-15 19:30N 01°18' E 103°44'0 0.1
2017-Oct-15 18:57N 01°18' E 103°44'0 0.0
2017-Oct-15 18:30N 01°18' E 103°44'0 0.0
2017-Oct-15 17:57N 01°18' E 103°44'0 0.0
2017-Oct-15 17:29N 01°18' E 103°44'0 0.0
2017-Oct-15 16:57N 01°18' E 103°44'0 0.0
2017-Oct-15 16:29N 01°18' E 103°44'0 0.0
2017-Oct-15 16:01N 01°18' E 103°44'0 0.1
2017-Oct-15 15:31N 01°18' E 103°44'2 3.0
2017-Oct-15 15:00N 01°17' E 103°45'6 6.2
2017-Oct-15 14:00N 01°14' E 103°39'0 0.4
2017-Oct-15 13:29N 01°14' E 103°39'0 0.1
2017-Oct-15 12:59N 01°14' E 103°39'0 0.1
2017-Oct-15 12:26N 01°14' E 103°39'0 0.1
2017-Oct-15 11:59N 01°14' E 103°39'0 0.1
2017-Oct-15 11:17N 01°14' E 103°39'0 0.0
2017-Oct-15 10:59N 01°14' E 103°39'0 0.0
2017-Oct-15 09:26N 01°14' E 103°39'817.1
2017-Oct-15 08:58N 01°09' E 103°45'2 1.3
2017-Oct-15 07:40N 01°10' E 103°46'947.0
2017-Oct-15 07:29N 01°14' E 103°39'0 0.0
2017-Oct-15 06:59N 01°14' E 103°39'0 0.1
2017-Oct-15 06:29N 01°14' E 103°39'0 0.1
2017-Oct-15 05:59N 01°14' E 103°39'0 0.0
2017-Oct-15 05:26N 01°14' E 103°39'0 0.0
2017-Oct-15 04:53N 01°14' E 103°39'0 0.0
2017-Oct-15 04:29N 01°14' E 103°39'0 0.1
2017-Oct-15 03:57N 01°14' E 103°39'0 0.0
2017-Oct-15 03:29N 01°14' E 103°39'0 0.0
2017-Oct-15 03:00N 01°14' E 103°39'0 0.1
2017-Oct-15 02:30N 01°14' E 103°39'0 0.0
2017-Oct-15 02:00N 01°14' E 103°39'0 0.1
2017-Oct-15 01:30N 01°14' E 103°39'0 0.0
2017-Oct-15 01:00N 01°14' E 103°39'0 0.0
2017-Oct-15 00:30N 01°14' E 103°39'0 0.1
2017-Oct-15 00:00N 01°14' E 103°39'1 1.2
2017-Oct-14 23:30N 01°14' E 103°39'4 8.2
2017-Oct-14 23:00N 01°10' E 103°41'3 5.4
2017-Oct-14 22:30N 01°09' E 103°43'3 5.2
2017-Oct-14 21:59N 01°09' E 103°46'3 6.4
2017-Oct-14 21:30N 01°11' E 103°49'713.0
2017-Oct-14 21:00N 01°14' E 103°55'612.6
2017-Oct-14 20:30N 01°16' E 104°00'1312.7
2017-Oct-14 19:28N 01°17' E 104°14'1012.6
2017-Oct-14 18:40N 01°21' E 104°23'  
2017-Oct-10 01:53N 22°29' E 119°47'514.1
2017-Oct-10 01:30N 22°31' E 119°53'714.6
2017-Oct-10 01:01N 22°34' E 120°00'714.8
2017-Oct-10 00:30N 22°36' E 120°08'611.8
2017-Oct-10 00:00N 22°38' E 120°14'4 7.7
2017-Oct-09 23:30N 22°36' E 120°17'1 2.1
2017-Oct-09 23:00N 22°35' E 120°18'0 0.0
2017-Oct-09 16:21N 22°35' E 120°18'0 0.0
2017-Oct-09 15:03N 22°35' E 120°18'0 0.0
2017-Oct-09 13:33N 22°35' E 120°18'0 0.0
2017-Oct-09 13:07N 22°35' E 120°18'0 0.0
2017-Oct-09 13:01N 22°35' E 120°18'0 0.0
2017-Oct-09 07:03N 22°35' E 120°18'0 0.0
2017-Oct-09 06:36N 22°35' E 120°18'0 0.0
2017-Oct-09 06:24N 22°35' E 120°18'0 0.0
2017-Oct-09 06:00N 22°35' E 120°18'0 0.0
2017-Oct-09 03:44N 22°35' E 120°18'0 0.0
2017-Oct-09 03:30N 22°35' E 120°18'0 0.7
2017-Oct-09 03:00N 22°35' E 120°18'4 8.0
2017-Oct-09 02:31N 22°37' E 120°14'4 7.4
2017-Oct-09 02:00N 22°37' E 120°10'2 5.0
2017-Oct-09 01:30N 22°39' E 120°08'612.4
2017-Oct-09 01:00N 22°44' E 120°04'  

Dump ship's entire track history